Arcadia, North Carolina
Current Conditions -  °F | °C
As of 5:15 AM on Saturday 20 Dec 2014 (Local Time) from KEXX Reporting Station
Overcast Overcast  
Wind Chill: 40°   Ceiling: 6000
Heat Index: 40°   Visibility: 10mi
Dew Point: 27°   Wind: 0mph
Humidity: 60%   Direction: NA
Pressure: 30.21"   Gusts: NA
Location:  35.7974°N, 80.2541°W
Report Text: KEXX 201015Z AUTO 00000KT 10SM OVC060 05/M03 A3021 RMK AO2 T00451026
Loading
Personal Weather Stations






























Interactive Weather Map New forecast layout! Learn more

10-Day Weather Forecast

Advertisements
Track Severe Weather on mobile